Terminal Aerodrome Forecast
Issued by NWS Charleston, WV

Current Version | Previous Version | Graphics & Text | Print | Product List | Glossary On
Versions: 1 2 3 4 5 6 7 8 9 10 11 12 13 14 15 16 17 18 19 20 21 22 23 24 25
481
FTUS41 KRLX 150541
TAFHTS
TAF
KHTS 150541Z 1506/1606 19006KT P6SM FEW250
     FM151400 22010KT P6SM SCT015
     FM151700 22011G17KT P6SM BKN015
     FM151800 21011KT P6SM BKN025
     FM152100 24010KT 4SM SHRA BR OVC025
     FM152200 27010KT 5SM SHRA BR OVC015
     FM160000 29009KT P6SM BKN010
     FM160200 31007KT P6SM BKN025=

USA.gov is the U.S. government's official web portal to all federal, state and local government web resources and services.